sensor_id;sensor_type;location;lat;lon;timestamp;pressure;altitude;pressure_sealevel;temperature;humidity
1480;BME280;732;51.698;4.886;2023-01-15T00:00:08;100021.84;;;4.72;100.00
1480;BME280;732;51.698;4.886;2023-01-15T00:02:37;99875.13;;;3.98;100.00
1480;BME280;732;51.698;4.886;2023-01-15T00:05:07;100021.97;;;4.81;100.00
1480;BME280;732;51.698;4.886;2023-01-15T00:07:37;100023.66;;;4.76;100.00
1480;BME280;732;51.698;4.886;2023-01-15T00:10:08;100021.09;;;4.79;100.00
1480;BME280;732;51.698;4.886;2023-01-15T00:12:37;100021.13;;;4.84;100.00
1480;BME280;732;51.698;4.886;2023-01-15T00:15:07;99968.63;;;4.49;100.00
1480;BME280;732;51.698;4.886;2023-01-15T00:17:37;99983.41;;;4.51;100.00
1480;BME280;732;51.698;4.886;2023-01-15T00:20:09;99989.69;;;4.70;100.00
1480;BME280;732;51.698;4.886;2023-01-15T00:22:39;99981.06;;;4.73;100.00
1480;BME280;732;51.698;4.886;2023-01-15T00:25:09;99977.28;;;4.46;100.00
1480;BME280;732;51.698;4.886;2023-01-15T00:27:55;100007.91;;;4.65;100.00
1480;BME280;732;51.698;4.886;2023-01-15T00:30:29;100023.56;;;4.70;100.00
1480;BME280;732;51.698;4.886;2023-01-15T00:32:59;99943.16;;;4.27;100.00
1480;BME280;732;51.698;4.886;2023-01-15T00:35:28;99883.66;;;3.87;100.00
1480;BME280;732;51.698;4.886;2023-01-15T00:38:03;100000.00;;;4.61;100.00
1480;BME280;732;51.698;4.886;2023-01-15T00:40:32;99919.41;;;4.04;100.00
1480;BME280;732;51.698;4.886;2023-01-15T00:43:01;99894.19;;;3.97;100.00
1480;BME280;732;51.698;4.886;2023-01-15T00:45:29;99930.88;;;4.17;100.00
1480;BME280;732;51.698;4.886;2023-01-15T00:47:58;99981.69;;;4.53;100.00
1480;BME280;732;51.698;4.886;2023-01-15T00:50:26;100001.75;;;4.60;100.00
1480;BME280;732;51.698;4.886;2023-01-15T00:52:55;100034.78;;;4.66;100.00
1480;BME280;732;51.698;4.886;2023-01-15T00:55:26;99940.44;;;4.19;100.00
1480;BME280;732;51.698;4.886;2023-01-15T00:57:54;100035.84;;;4.77;100.00
1480;BME280;732;51.698;4.886;2023-01-15T01:00:23;99922.25;;;4.21;100.00
1480;BME280;732;51.698;4.886;2023-01-15T01:02:52;100035.88;;;4.83;100.00
1480;BME280;732;51.698;4.886;2023-01-15T01:05:21;99905.66;;;4.13;100.00
1480;BME280;732;51.698;4.886;2023-01-15T01:07:52;100030.63;;;4.79;100.00
1480;BME280;732;51.698;4.886;2023-01-15T01:10:21;99995.50;;;4.48;100.00
1480;BME280;732;51.698;4.886;2023-01-15T01:12:51;100020.03;;;4.63;100.00
1480;BME280;732;51.698;4.886;2023-01-15T01:15:20;100038.28;;;4.68;100.00
1480;BME280;732;51.698;4.886;2023-01-15T01:17:49;100041.88;;;4.76;100.00
1480;BME280;732;51.698;4.886;2023-01-15T01:20:18;100046.97;;;4.65;100.00
1480;BME280;732;51.698;4.886;2023-01-15T01:22:49;100041.78;;;4.67;100.00
1480;BME280;732;51.698;4.886;2023-01-15T01:25:20;100041.78;;;4.67;100.00
1480;BME280;732;51.698;4.886;2023-01-15T01:27:50;100016.31;;;4.43;100.00
1480;BME280;732;51.698;4.886;2023-01-15T01:30:20;100043.56;;;4.71;100.00
1480;BME280;732;51.698;4.886;2023-01-15T01:32:48;100000.78;;;4.52;100.00
1480;BME280;732;51.698;4.886;2023-01-15T01:35:17;100047.75;;;4.60;100.00
1480;BME280;732;51.698;4.886;2023-01-15T01:37:49;100026.66;;;4.42;100.00
1480;BME280;732;51.698;4.886;2023-01-15T01:40:18;100052.19;;;4.65;100.00
1480;BME280;732;51.698;4.886;2023-01-15T01:42:47;100042.41;;;4.51;100.00
1480;BME280;732;51.698;4.886;2023-01-15T01:45:23;100046.75;;;4.49;100.00
1480;BME280;732;51.698;4.886;2023-01-15T01:47:56;100037.97;;;4.44;100.00
1480;BME280;732;51.698;4.886;2023-01-15T01:50:27;100049.34;;;4.49;100.00
1480;BME280;732;51.698;4.886;2023-01-15T01:53:01;100053.69;;;4.51;100.00
1480;BME280;732;51.698;4.886;2023-01-15T01:55:33;100052.00;;;4.52;100.00
1480;BME280;732;51.698;4.886;2023-01-15T01:58:05;100017.13;;;4.41;100.00
1480;BME280;732;51.698;4.886;2023-01-15T02:00:40;99982.97;;;4.23;100.00
1480;BME280;732;51.698;4.886;2023-01-15T02:03:12;100046.06;;;4.63;100.00
1480;BME280;732;51.698;4.886;2023-01-15T02:05:48;100011.72;;;4.27;100.00
1480;BME280;732;51.698;4.886;2023-01-15T02:08:17;100039.69;;;4.42;100.00
1480;BME280;732;51.698;4.886;2023-01-15T02:10:51;99870.88;;;3.42;100.00
1480;BME280;732;51.698;4.886;2023-01-15T02:13:35;100005.47;;;4.18;100.00
1480;BME280;732;51.698;4.886;2023-01-15T02:16:15;100031.84;;;4.39;100.00
1480;BME280;732;51.698;4.886;2023-01-15T02:18:55;99878.94;;;3.58;100.00
1480;BME280;732;51.698;4.886;2023-01-15T02:21:43;100035.44;;;4.48;100.00
1480;BME280;732;51.698;4.886;2023-01-15T02:24:23;100029.22;;;4.37;100.00
1480;BME280;732;51.698;4.886;2023-01-15T02:27:09;100000.25;;;4.15;100.00
1480;BME280;732;51.698;4.886;2023-01-15T02:29:49;99999.59;;;4.26;100.00
1480;BME280;732;51.698;4.886;2023-01-15T02:32:30;100027.56;;;4.44;100.00
1480;BME280;732;51.698;4.886;2023-01-15T02:35:06;99765.16;;;2.81;100.00
1480;BME280;732;51.698;4.886;2023-01-15T02:37:42;100024.06;;;4.40;100.00
1480;BME280;732;51.698;4.886;2023-01-15T02:40:17;100007.25;;;4.20;100.00
1480;BME280;732;51.698;4.886;2023-01-15T02:42:49;100005.34;;;4.07;100.00
1480;BME280;732;51.698;4.886;2023-01-15T02:45:24;99920.47;;;3.55;100.00
1480;BME280;732;51.698;4.886;2023-01-15T02:48:04;99980.72;;;3.86;100.00
1480;BME280;732;51.698;4.886;2023-01-15T02:50:39;100032.63;;;4.33;100.00
1480;BME280;732;51.698;4.886;2023-01-15T02:53:13;100021.31;;;4.30;100.00
1480;BME280;732;51.698;4.886;2023-01-15T02:55:49;100000.03;;;4.00;100.00
1480;BME280;732;51.698;4.886;2023-01-15T02:58:31;100022.78;;;4.16;100.00
1480;BME280;732;51.698;4.886;2023-01-15T03:01:08;99993.03;;;3.96;100.00
1480;BME280;732;51.698;4.886;2023-01-15T03:03:45;100016.53;;;4.02;100.00
1480;BME280;732;51.698;4.886;2023-01-15T03:06:20;100031.50;;;4.16;100.00
1480;BME280;732;51.698;4.886;2023-01-15T03:08:54;100035.03;;;4.23;100.00
1480;BME280;732;51.698;4.886;2023-01-15T03:11:23;100028.91;;;4.18;100.00
1480;BME280;732;51.698;4.886;2023-01-15T03:14:03;100044.06;;;4.43;100.00
1480;BME280;732;51.698;4.886;2023-01-15T03:16:36;100010.66;;;4.13;100.00
1480;BME280;732;51.698;4.886;2023-01-15T03:19:18;100029.94;;;4.26;100.00
1480;BME280;732;51.698;4.886;2023-01-15T03:21:56;100029.00;;;4.24;100.00
1480;BME280;732;51.698;4.886;2023-01-15T03:24:32;99999.03;;;3.93;100.00
1480;BME280;732;51.698;4.886;2023-01-15T03:27:07;99942.44;;;3.76;100.00
1480;BME280;732;51.698;4.886;2023-01-15T03:29:44;100023.03;;;4.31;100.00
1480;BME280;732;51.698;4.886;2023-01-15T03:32:14;100023.03;;;4.31;100.00
1480;BME280;732;51.698;4.886;2023-01-15T03:34:49;100020.53;;;4.37;100.00
1480;BME280;732;51.698;4.886;2023-01-15T03:37:21;99992.22;;;4.00;100.00
1480;BME280;732;51.698;4.886;2023-01-15T03:39:53;100032.31;;;4.15;100.00
1480;BME280;732;51.698;4.886;2023-01-15T03:42:40;100005.94;;;3.91;100.00
1480;BME280;732;51.698;4.886;2023-01-15T03:45:25;99993.91;;;3.96;100.00
1480;BME280;732;51.698;4.886;2023-01-15T03:48:14;100010.66;;;4.16;100.00
1480;BME280;732;51.698;4.886;2023-01-15T03:50:51;100016.53;;;4.00;100.00
1480;BME280;732;51.698;4.886;2023-01-15T03:53:25;100009.69;;;4.10;100.00
1480;BME280;732;51.698;4.886;2023-01-15T03:56:05;100002.63;;;3.98;100.00
1480;BME280;732;51.698;4.886;2023-01-15T03:58:44;100018.03;;;3.88;100.00
1480;BME280;732;51.698;4.886;2023-01-15T04:01:25;100011.28;;;3.99;100.00
1480;BME280;732;51.698;4.886;2023-01-15T04:04:00;100012.13;;;3.98;100.00
1480;BME280;732;51.698;4.886;2023-01-15T04:06:32;100019.97;;;4.01;100.00
1480;BME280;732;51.698;4.886;2023-01-15T04:09:04;100011.47;;;4.11;100.00
1480;BME280;732;51.698;4.886;2023-01-15T04:11:33;100009.69;;;4.08;100.00
1480;BME280;732;51.698;4.886;2023-01-15T04:14:05;99994.50;;;3.79;100.00
1480;BME280;732;51.698;4.886;2023-01-15T04:16:47;99997.22;;;3.88;100.00
1480;BME280;732;51.698;4.886;2023-01-15T04:19:16;100001.47;;;3.81;100.00
1480;BME280;732;51.698;4.886;2023-01-15T04:21:52;100011.94;;;3.86;100.00
1480;BME280;732;51.698;4.886;2023-01-15T04:24:21;100010.00;;;3.72;100.00
1480;BME280;732;51.698;4.886;2023-01-15T04:26:49;100011.91;;;3.83;100.00
1480;BME280;732;51.698;4.886;2023-01-15T04:29:18;100014.41;;;3.77;100.00
1480;BME280;732;51.698;4.886;2023-01-15T04:31:48;99982.91;;;3.58;100.00
1480;BME280;732;51.698;4.886;2023-01-15T04:34:18;99982.16;;;3.65;100.00
1480;BME280;732;51.698;4.886;2023-01-15T04:36:47;100012.66;;;3.76;100.00
1480;BME280;732;51.698;4.886;2023-01-15T04:39:15;99996.69;;;3.53;100.00
1480;BME280;732;51.698;4.886;2023-01-15T04:41:44;100010.75;;;3.65;100.00
1480;BME280;732;51.698;4.886;2023-01-15T04:44:32;99994.00;;;3.48;100.00
1480;BME280;732;51.698;4.886;2023-01-15T04:47:02;99980.91;;;3.44;100.00
1480;BME280;732;51.698;4.886;2023-01-15T04:49:31;100009.50;;;3.42;100.00
1480;BME280;732;51.698;4.886;2023-01-15T04:51:59;100005.16;;;3.41;100.00
1480;BME280;732;51.698;4.886;2023-01-15T04:54:28;100023.72;;;3.62;100.00
1480;BME280;732;51.698;4.886;2023-01-15T04:56:56;100023.78;;;3.67;100.00
1480;BME280;732;51.698;4.886;2023-01-15T04:59:26;100001.03;;;3.54;100.00
1480;BME280;732;51.698;4.886;2023-01-15T05:01:54;99974.78;;;3.39;100.00
1480;BME280;732;51.698;4.886;2023-01-15T05:04:34;100006.34;;;3.61;100.00
1480;BME280;732;51.698;4.886;2023-01-15T05:07:04;99991.38;;;3.45;100.00
1480;BME280;732;51.698;4.886;2023-01-15T05:09:32;99999.22;;;3.50;100.00
1480;BME280;732;51.698;4.886;2023-01-15T05:12:01;99992.16;;;3.41;100.00
1480;BME280;732;51.698;4.886;2023-01-15T05:14:30;100002.69;;;3.49;100.00
1480;BME280;732;51.698;4.886;2023-01-15T05:16:58;99998.38;;;3.51;100.00
1480;BME280;732;51.698;4.886;2023-01-15T05:19:26;99963.72;;;3.52;100.00
1480;BME280;732;51.698;4.886;2023-01-15T05:21:56;99994.22;;;3.60;100.00
1480;BME280;732;51.698;4.886;2023-01-15T05:24:24;99970.75;;;3.59;100.00
1480;BME280;732;51.698;4.886;2023-01-15T05:26:53;99942.78;;;3.43;100.00
1480;BME280;732;51.698;4.886;2023-01-15T05:29:24;99974.13;;;3.52;100.00
1480;BME280;732;51.698;4.886;2023-01-15T05:31:52;100002.06;;;3.65;100.00
1480;BME280;732;51.698;4.886;2023-01-15T05:34:21;99966.97;;;3.37;100.00
1480;BME280;732;51.698;4.886;2023-01-15T05:36:49;99999.34;;;3.57;100.00
1480;BME280;732;51.698;4.886;2023-01-15T05:39:19;99995.03;;;3.58;100.00
1480;BME280;732;51.698;4.886;2023-01-15T05:41:47;99996.72;;;3.56;100.00
1480;BME280;732;51.698;4.886;2023-01-15T05:44:19;99984.28;;;3.37;100.00
1480;BME280;732;51.698;4.886;2023-01-15T05:46:49;99961.41;;;3.18;100.00
1480;BME280;732;51.698;4.886;2023-01-15T05:49:21;99954.34;;;3.09;100.00
1480;BME280;732;51.698;4.886;2023-01-15T05:51:51;99995.50;;;3.34;100.00
1480;BME280;732;51.698;4.886;2023-01-15T05:54:24;99957.03;;;3.14;100.00
1480;BME280;732;51.698;4.886;2023-01-15T05:56:53;100000.66;;;3.33;100.00
1480;BME280;732;51.698;4.886;2023-01-15T05:59:26;99998.94;;;3.33;100.00
1480;BME280;732;51.698;4.886;2023-01-15T06:01:55;100004.88;;;3.26;100.00
1480;BME280;732;51.698;4.886;2023-01-15T06:04:24;99975.81;;;2.99;100.00
1480;BME280;732;51.698;4.886;2023-01-15T06:06:54;100016.66;;;3.06;100.00
1480;BME280;732;51.698;4.886;2023-01-15T06:09:25;99989.50;;;2.89;100.00
1480;BME280;732;51.698;4.886;2023-01-15T06:11:54;100008.75;;;3.00;100.00
1480;BME280;732;51.698;4.886;2023-01-15T06:14:23;100018.41;;;3.09;100.00
1480;BME280;732;51.698;4.886;2023-01-15T06:16:52;100027.88;;;3.05;100.00
1480;BME280;732;51.698;4.886;2023-01-15T06:19:20;100033.94;;;3.04;100.00
1480;BME280;732;51.698;4.886;2023-01-15T06:21:49;100001.50;;;2.84;100.00
1480;BME280;732;51.698;4.886;2023-01-15T06:24:18;100035.63;;;3.02;100.00
1480;BME280;732;51.698;4.886;2023-01-15T06:26:48;99994.44;;;2.77;100.00
1480;BME280;732;51.698;4.886;2023-01-15T06:29:17;100035.31;;;2.87;100.00
1480;BME280;732;51.698;4.886;2023-01-15T06:31:47;100033.69;;;2.92;100.00
1480;BME280;732;51.698;4.886;2023-01-15T06:34:16;100026.84;;;2.97;100.00
1480;BME280;732;51.698;4.886;2023-01-15T06:36:45;100040.75;;;3.01;100.00
1480;BME280;732;51.698;4.886;2023-01-15T06:39:17;100023.63;;;3.10;100.00
1480;BME280;732;51.698;4.886;2023-01-15T06:41:45;100032.16;;;3.03;100.00
1480;BME280;732;51.698;4.886;2023-01-15T06:44:33;99966.38;;;2.59;100.00
1480;BME280;732;51.698;4.886;2023-01-15T06:47:20;100040.72;;;2.98;100.00
1480;BME280;732;51.698;4.886;2023-01-15T06:49:53;99918.13;;;2.26;100.00
1480;BME280;732;51.698;4.886;2023-01-15T06:52:22;100038.28;;;3.07;100.00
1480;BME280;732;51.698;4.886;2023-01-15T06:54:52;100044.66;;;3.22;100.00
1480;BME280;732;51.698;4.886;2023-01-15T06:57:21;99975.22;;;2.67;100.00
1480;BME280;732;51.698;4.886;2023-01-15T06:59:54;100053.09;;;3.12;100.00
1480;BME280;732;51.698;4.886;2023-01-15T07:02:22;100003.44;;;2.96;100.00
1480;BME280;732;51.698;4.886;2023-01-15T07:04:51;100024.63;;;3.17;100.00
1480;BME280;732;51.698;4.886;2023-01-15T07:07:20;100025.59;;;3.22;100.00
1480;BME280;732;51.698;4.886;2023-01-15T07:09:49;100041.56;;;2.97;100.00
1480;BME280;732;51.698;4.886;2023-01-15T07:12:18;100001.25;;;2.70;100.00
1480;BME280;732;51.698;4.886;2023-01-15T07:14:48;100022.25;;;2.83;100.00
1480;BME280;732;51.698;4.886;2023-01-15T07:17:18;100016.09;;;2.78;100.00
1480;BME280;732;51.698;4.886;2023-01-15T07:19:46;100035.81;;;2.69;100.00
1480;BME280;732;51.698;4.886;2023-01-15T07:22:15;100049.22;;;2.89;100.00
1480;BME280;732;51.698;4.886;2023-01-15T07:24:43;100038.63;;;2.80;100.00
1480;BME280;732;51.698;4.886;2023-01-15T07:27:12;100049.72;;;2.71;100.00
1480;BME280;732;51.698;4.886;2023-01-15T07:29:43;100052.19;;;2.67;100.00
1480;BME280;732;51.698;4.886;2023-01-15T07:32:15;100016.03;;;2.33;100.00
1480;BME280;732;51.698;4.886;2023-01-15T07:34:45;100037.84;;;2.42;100.00
1480;BME280;732;51.698;4.886;2023-01-15T07:37:13;100006.41;;;2.29;100.00
1480;BME280;732;51.698;4.886;2023-01-15T07:39:42;100031.94;;;2.49;100.00
1480;BME280;732;51.698;4.886;2023-01-15T07:42:10;100038.97;;;2.55;100.00
1480;BME280;732;51.698;4.886;2023-01-15T07:45:09;100001.88;;;2.19;100.00
1480;BME280;732;51.698;4.886;2023-01-15T07:47:55;99992.03;;;2.04;100.00
1480;BME280;732;51.698;4.886;2023-01-15T07:50:43;100042.88;;;2.35;100.00
1480;BME280;732;51.698;4.886;2023-01-15T07:53:11;100009.66;;;2.19;100.00
1480;BME280;732;51.698;4.886;2023-01-15T07:55:41;100009.78;;;2.25;100.00
1480;BME280;732;51.698;4.886;2023-01-15T07:58:12;100048.84;;;2.31;100.00
1480;BME280;732;51.698;4.886;2023-01-15T08:00:40;100029.34;;;2.11;100.00
1480;BME280;732;51.698;4.886;2023-01-15T08:03:18;100024.03;;;2.05;100.00
1480;BME280;732;51.698;4.886;2023-01-15T08:05:52;100055.00;;;2.36;100.00
1480;BME280;732;51.698;4.886;2023-01-15T08:08:23;100054.06;;;2.32;100.00
1480;BME280;732;51.698;4.886;2023-01-15T08:10:53;100044.41;;;2.25;100.00
1480;BME280;732;51.698;4.886;2023-01-15T08:13:35;99995.09;;;1.88;100.00
1480;BME280;732;51.698;4.886;2023-01-15T08:16:22;100050.59;;;2.33;100.00
1480;BME280;732;51.698;4.886;2023-01-15T08:18:51;100055.16;;;2.43;100.00
1480;BME280;732;51.698;4.886;2023-01-15T08:21:21;100056.13;;;2.48;100.00
1480;BME280;732;51.698;4.886;2023-01-15T08:23:50;100055.31;;;2.49;100.00
1480;BME280;732;51.698;4.886;2023-01-15T08:26:19;100058.66;;;2.44;100.00
1480;BME280;732;51.698;4.886;2023-01-15T08:28:49;100043.00;;;2.41;100.00
1480;BME280;732;51.698;4.886;2023-01-15T08:31:17;100048.25;;;2.44;100.00
1480;BME280;732;51.698;4.886;2023-01-15T08:33:46;100000.22;;;2.22;100.00
1480;BME280;732;51.698;4.886;2023-01-15T08:36:14;100047.53;;;2.49;100.00
1480;BME280;732;51.698;4.886;2023-01-15T08:38:47;100024.78;;;2.38;100.00
1480;BME280;732;51.698;4.886;2023-01-15T08:41:16;100023.25;;;2.47;100.00
1480;BME280;732;51.698;4.886;2023-01-15T08:43:45;100027.75;;;2.56;100.00
1480;BME280;732;51.698;4.886;2023-01-15T08:46:16;100028.59;;;2.55;100.00
1480;BME280;732;51.698;4.886;2023-01-15T08:48:44;100044.34;;;2.62;100.00
1480;BME280;732;51.698;4.886;2023-01-15T08:51:13;100004.19;;;2.47;100.00
1480;BME280;732;51.698;4.886;2023-01-15T08:53:42;100027.22;;;2.70;100.00
1480;BME280;732;51.698;4.886;2023-01-15T08:56:13;100048.84;;;2.72;100.00
1480;BME280;732;51.698;4.886;2023-01-15T08:58:43;100027.13;;;2.67;100.00
1480;BME280;732;51.698;4.886;2023-01-15T09:01:12;100009.72;;;2.63;100.00
1480;BME280;732;51.698;4.886;2023-01-15T09:03:42;100057.84;;;2.88;100.00
1480;BME280;732;51.698;4.886;2023-01-15T09:06:11;100050.06;;;2.90;100.00
1480;BME280;732;51.698;4.886;2023-01-15T09:08:39;100043.25;;;2.95;100.00
1480;BME280;732;51.698;4.886;2023-01-15T09:11:09;100031.28;;;3.03;100.00
1480;BME280;732;51.698;4.886;2023-01-15T09:13:41;99977.28;;;2.84;100.00
1480;BME280;732;51.698;4.886;2023-01-15T09:16:10;100017.91;;;3.29;100.00
1480;BME280;732;51.698;4.886;2023-01-15T09:18:39;100023.81;;;3.19;100.00
1480;BME280;732;51.698;4.886;2023-01-15T09:21:07;100019.28;;;3.09;100.00
1480;BME280;732;51.698;4.886;2023-01-15T09:23:36;100019.31;;;3.11;100.00
1480;BME280;732;51.698;4.886;2023-01-15T09:26:06;100021.22;;;3.19;100.00
1480;BME280;732;51.698;4.886;2023-01-15T09:28:35;99988.09;;;3.06;100.00
1480;BME280;732;51.698;4.886;2023-01-15T09:31:06;99995.31;;;3.25;100.00
1480;BME280;732;51.698;4.886;2023-01-15T09:33:39;100016.50;;;3.46;100.00
1480;BME280;732;51.698;4.886;2023-01-15T09:36:14;100019.13;;;3.48;100.00
1480;BME280;732;51.698;4.886;2023-01-15T09:38:44;100005.03;;;3.35;100.00
1480;BME280;732;51.698;4.886;2023-01-15T09:41:14;100007.00;;;3.48;100.00
1480;BME280;732;51.698;4.886;2023-01-15T09:44:15;99994.91;;;3.50;100.00
1480;BME280;732;51.698;4.886;2023-01-15T09:47:00;100041.41;;;3.83;100.00
1480;BME280;732;51.698;4.886;2023-01-15T09:50:02;100044.94;;;3.90;100.00
1480;BME280;732;51.698;4.886;2023-01-15T09:52:54;100010.31;;;3.91;100.00
1480;BME280;732;51.698;4.886;2023-01-15T09:55:45;99985.94;;;3.86;100.00
1480;BME280;732;51.698;4.886;2023-01-15T09:58:16;100002.63;;;4.00;100.00
1480;BME280;732;51.698;4.886;2023-01-15T10:00:49;100025.41;;;4.16;100.00
1480;BME280;732;51.698;4.886;2023-01-15T10:03:31;99896.03;;;3.44;100.00
1480;BME280;732;51.698;4.886;2023-01-15T10:06:09;100034.09;;;4.18;100.00
1480;BME280;732;51.698;4.886;2023-01-15T10:08:45;99990.22;;;3.84;100.00
1480;BME280;732;51.698;4.886;2023-01-15T10:11:33;100013.94;;;4.02;100.00
1480;BME280;732;51.698;4.886;2023-01-15T10:14:35;100032.28;;;4.11;100.00
1480;BME280;732;51.698;4.886;2023-01-15T10:17:25;99997.22;;;3.86;100.00
1480;BME280;732;51.698;4.886;2023-01-15T10:19:57;99992.94;;;3.90;100.00
1480;BME280;732;51.698;4.886;2023-01-15T10:22:42;100026.38;;;4.22;100.00
1480;BME280;732;51.698;4.886;2023-01-15T10:25:16;100024.84;;;4.35;100.00
1480;BME280;732;51.698;4.886;2023-01-15T10:27:51;100012.00;;;4.47;100.00
1480;BME280;732;51.698;4.886;2023-01-15T10:30:31;100031.03;;;4.43;100.00
1480;BME280;732;51.698;4.886;2023-01-15T10:33:19;100040.19;;;4.81;100.00
1480;BME280;732;51.698;4.886;2023-01-15T10:36:01;100007.09;;;4.71;100.00
1480;BME280;732;51.698;4.886;2023-01-15T10:38:37;100013.84;;;4.57;100.00
1480;BME280;732;51.698;4.886;2023-01-15T10:41:45;100036.47;;;4.61;100.00
1480;BME280;732;51.698;4.886;2023-01-15T10:44:27;100031.53;;;4.81;100.00
1480;BME280;732;51.698;4.886;2023-01-15T10:46:59;100014.13;;;4.78;100.00
1480;BME280;732;51.698;4.886;2023-01-15T10:49:30;100015.13;;;4.91;100.00
1480;BME280;732;51.698;4.886;2023-01-15T10:52:11;100042.97;;;4.96;100.00
1480;BME280;732;51.698;4.886;2023-01-15T10:54:49;100045.50;;;4.89;100.00
1480;BME280;732;51.698;4.886;2023-01-15T10:57:24;100036.78;;;4.85;100.00
1480;BME280;732;51.698;4.886;2023-01-15T11:00:00;100008.06;;;4.79;100.00
1480;BME280;732;51.698;4.886;2023-01-15T11:02:37;100051.78;;;5.04;100.00
1480;BME280;732;51.698;4.886;2023-01-15T11:05:12;100034.16;;;4.82;100.00
1480;BME280;732;51.698;4.886;2023-01-15T11:07:48;100048.00;;;4.80;100.00
1480;BME280;732;51.698;4.886;2023-01-15T11:10:39;100031.56;;;4.84;100.00
1480;BME280;732;51.698;4.886;2023-01-15T11:13:20;100009.06;;;4.90;100.00
1480;BME280;732;51.698;4.886;2023-01-15T11:16:15;100034.59;;;5.21;100.00
1480;BME280;732;51.698;4.886;2023-01-15T11:19:03;100034.53;;;5.17;100.00
1480;BME280;732;51.698;4.886;2023-01-15T11:21:54;100037.94;;;5.11;100.00
1480;BME280;732;51.698;4.886;2023-01-15T11:24:25;100034.34;;;5.02;100.00
1480;BME280;732;51.698;4.886;2023-01-15T11:26:54;100054.22;;;4.91;100.00
1480;BME280;732;51.698;4.886;2023-01-15T11:29:30;100052.13;;;4.62;100.00
1480;BME280;732;51.698;4.886;2023-01-15T11:32:00;100055.53;;;4.58;100.00
1480;BME280;732;51.698;4.886;2023-01-15T11:34:31;100013.59;;;4.37;100.00
1480;BME280;732;51.698;4.886;2023-01-15T11:37:04;100057.31;;;4.62;100.00
1480;BME280;732;51.698;4.886;2023-01-15T11:39:35;100046.91;;;4.62;100.00
1480;BME280;732;51.698;4.886;2023-01-15T11:42:11;99996.50;;;4.56;100.00
1480;BME280;732;51.698;4.886;2023-01-15T11:45:00;100033.25;;;4.82;100.00
1480;BME280;732;51.698;4.886;2023-01-15T11:47:53;100052.47;;;4.90;100.00
1480;BME280;732;51.698;4.886;2023-01-15T11:50:52;100015.72;;;4.68;100.00
1480;BME280;732;51.698;4.886;2023-01-15T11:53:26;100040.78;;;4.59;100.00
1480;BME280;732;51.698;4.886;2023-01-15T11:56:00;100058.19;;;4.61;100.00
1480;BME280;732;51.698;4.886;2023-01-15T11:58:39;100008.44;;;4.42;100.00
1480;BME280;732;51.698;4.886;2023-01-15T12:01:11;100043.47;;;4.65;100.00
1480;BME280;732;51.698;4.886;2023-01-15T12:03:42;100017.13;;;4.39;100.00
1480;BME280;732;51.698;4.886;2023-01-15T12:06:13;100063.50;;;4.69;100.00
1480;BME280;732;51.698;4.886;2023-01-15T12:08:47;100024.94;;;4.41;100.00
1480;BME280;732;51.698;4.886;2023-01-15T12:11:38;100055.97;;;4.26;100.00
1480;BME280;732;51.698;4.886;2023-01-15T12:14:47;100044.25;;;4.00;100.00
1480;BME280;732;51.698;4.886;2023-01-15T12:17:33;100058.41;;;4.17;100.00
1480;BME280;732;51.698;4.886;2023-01-15T12:20:20;100066.75;;;3.96;100.00
1480;BME280;732;51.698;4.886;2023-01-15T12:23:19;100025.13;;;3.96;100.00
1480;BME280;732;51.698;4.886;2023-01-15T12:26:02;100026.88;;;3.99;100.00
1480;BME280;732;51.698;4.886;2023-01-15T12:28:39;100066.41;;;4.30;100.00
1480;BME280;732;51.698;4.886;2023-01-15T12:31:17;100056.09;;;4.35;100.00
1480;BME280;732;51.698;4.886;2023-01-15T12:33:54;100015.19;;;4.26;100.00
1480;BME280;732;51.698;4.886;2023-01-15T12:36:29;100012.00;;;4.47;100.00
1480;BME280;732;51.698;4.886;2023-01-15T12:39:03;100043.44;;;4.62;100.00
1480;BME280;732;51.698;4.886;2023-01-15T12:41:38;100021.56;;;4.51;100.00
1480;BME280;732;51.698;4.886;2023-01-15T12:44:39;100006.75;;;4.45;100.00
1480;BME280;732;51.698;4.886;2023-01-15T12:47:38;100041.75;;;4.65;100.00
1480;BME280;732;51.698;4.886;2023-01-15T12:50:30;100011.13;;;4.46;100.00
1480;BME280;732;51.698;4.886;2023-01-15T12:53:13;100045.38;;;4.77;100.00
1480;BME280;732;51.698;4.886;2023-01-15T12:55:52;100052.19;;;4.65;100.00
1480;BME280;732;51.698;4.886;2023-01-15T12:58:39;100041.53;;;4.49;100.00
1480;BME280;732;51.698;4.886;2023-01-15T13:01:15;100033.47;;;4.31;100.00
1480;BME280;732;51.698;4.886;2023-01-15T13:04:10;100065.81;;;4.48;100.00
1480;BME280;732;51.698;4.886;2023-01-15T13:06:45;100040.06;;;4.08;100.00
1480;BME280;732;51.698;4.886;2023-01-15T13:09:33;100062.28;;;4.44;100.00
1480;BME280;732;51.698;4.886;2023-01-15T13:12:11;100018.56;;;4.22;100.00
1480;BME280;732;51.698;4.886;2023-01-15T13:14:40;100043.16;;;4.41;100.00
1480;BME280;732;51.698;4.886;2023-01-15T13:17:22;100041.38;;;4.37;100.00
1480;BME280;732;51.698;4.886;2023-01-15T13:20:20;100011.44;;;4.09;100.00
1480;BME280;732;51.698;4.886;2023-01-15T13:23:04;100053.38;;;4.29;100.00
1480;BME280;732;51.698;4.886;2023-01-15T13:25:57;100042.72;;;4.14;100.00
1480;BME280;732;51.698;4.886;2023-01-15T13:28:51;100064.88;;;4.41;100.00
1480;BME280;732;51.698;4.886;2023-01-15T13:31:51;100060.84;;;4.66;100.00
1480;BME280;732;51.698;4.886;2023-01-15T13:34:30;100053.88;;;4.62;100.00
1480;BME280;732;51.698;4.886;2023-01-15T13:37:12;100062.31;;;4.47;100.00
1480;BME280;732;51.698;4.886;2023-01-15T13:39:47;100071.59;;;4.29;100.00
1480;BME280;732;51.698;4.886;2023-01-15T13:42:35;100075.75;;;4.19;100.00
1480;BME280;732;51.698;4.886;2023-01-15T13:45:37;100055.47;;;3.96;100.00
1480;BME280;732;51.698;4.886;2023-01-15T13:48:14;100035.59;;;4.01;100.00
1480;BME280;732;51.698;4.886;2023-01-15T13:51:23;100103.50;;;4.17;100.00
1480;BME280;732;51.698;4.886;2023-01-15T13:53:57;100072.09;;;4.05;100.00
1480;BME280;732;51.698;4.886;2023-01-15T13:56:29;100068.56;;;4.02;100.00
1480;BME280;732;51.698;4.886;2023-01-15T13:59:01;100093.72;;;4.03;100.00
1480;BME280;732;51.698;4.886;2023-01-15T14:01:33;100107.00;;;4.19;100.00
1480;BME280;732;51.698;4.886;2023-01-15T14:04:06;100108.84;;;4.25;100.00
1480;BME280;732;51.698;4.886;2023-01-15T14:06:49;99959.31;;;3.46;100.00